sensor_id;sensor_type;location;lat;lon;timestamp;temperature;humidity
20483;DHT22;10400;53.198;6.592;2022-10-31T00:01:23;13.90;99.90
20483;DHT22;10400;53.198;6.592;2022-10-31T00:03:49;13.80;99.90
20483;DHT22;10400;53.198;6.592;2022-10-31T00:06:15;13.80;99.90
20483;DHT22;10400;53.198;6.592;2022-10-31T00:08:46;13.70;99.90
20483;DHT22;10400;53.198;6.592;2022-10-31T00:11:12;13.70;99.90
20483;DHT22;10400;53.198;6.592;2022-10-31T00:13:38;13.70;99.90
20483;DHT22;10400;53.198;6.592;2022-10-31T00:16:04;13.70;99.90
20483;DHT22;10400;53.198;6.592;2022-10-31T00:18:30;13.70;99.90
20483;DHT22;10400;53.198;6.592;2022-10-31T00:21:02;13.60;99.90
20483;DHT22;10400;53.198;6.592;2022-10-31T00:23:28;13.60;99.90
20483;DHT22;10400;53.198;6.592;2022-10-31T00:25:54;13.60;99.90
20483;DHT22;10400;53.198;6.592;2022-10-31T00:28:24;13.60;99.90
20483;DHT22;10400;53.198;6.592;2022-10-31T00:30:50;13.60;99.90
20483;DHT22;10400;53.198;6.592;2022-10-31T00:33:16;13.50;99.90
20483;DHT22;10400;53.198;6.592;2022-10-31T00:35:41;13.50;99.90
20483;DHT22;10400;53.198;6.592;2022-10-31T00:38:07;13.50;99.90
20483;DHT22;10400;53.198;6.592;2022-10-31T00:40:32;13.40;99.90
20483;DHT22;10400;53.198;6.592;2022-10-31T00:42:58;13.40;99.90
20483;DHT22;10400;53.198;6.592;2022-10-31T00:45:23;13.50;99.90
20483;DHT22;10400;53.198;6.592;2022-10-31T00:47:49;13.40;99.90
20483;DHT22;10400;53.198;6.592;2022-10-31T00:50:15;13.40;99.90
20483;DHT22;10400;53.198;6.592;2022-10-31T00:52:41;13.40;99.90
20483;DHT22;10400;53.198;6.592;2022-10-31T00:55:07;13.40;99.90
20483;DHT22;10400;53.198;6.592;2022-10-31T00:57:32;13.40;99.90
20483;DHT22;10400;53.198;6.592;2022-10-31T00:59:58;13.40;99.90
20483;DHT22;10400;53.198;6.592;2022-10-31T01:02:23;13.30;99.90
20483;DHT22;10400;53.198;6.592;2022-10-31T01:04:49;13.30;99.90
20483;DHT22;10400;53.198;6.592;2022-10-31T01:07:15;13.30;99.90
20483;DHT22;10400;53.198;6.592;2022-10-31T01:09:41;13.30;99.90
20483;DHT22;10400;53.198;6.592;2022-10-31T01:12:06;13.30;99.90
20483;DHT22;10400;53.198;6.592;2022-10-31T01:14:32;13.20;99.90
20483;DHT22;10400;53.198;6.592;2022-10-31T01:16:58;13.20;99.90
20483;DHT22;10400;53.198;6.592;2022-10-31T01:19:24;13.20;99.90
20483;DHT22;10400;53.198;6.592;2022-10-31T01:21:49;13.20;99.90
20483;DHT22;10400;53.198;6.592;2022-10-31T01:24:15;13.20;99.90
20483;DHT22;10400;53.198;6.592;2022-10-31T01:26:40;13.10;99.90
20483;DHT22;10400;53.198;6.592;2022-10-31T01:29:07;13.20;99.90
20483;DHT22;10400;53.198;6.592;2022-10-31T01:31:38;13.20;99.90
20483;DHT22;10400;53.198;6.592;2022-10-31T01:34:04;13.20;99.90
20483;DHT22;10400;53.198;6.592;2022-10-31T01:36:36;13.10;99.90
20483;DHT22;10400;53.198;6.592;2022-10-31T01:39:06;13.10;99.90
20483;DHT22;10400;53.198;6.592;2022-10-31T01:41:34;13.10;99.90
20483;DHT22;10400;53.198;6.592;2022-10-31T01:47:01;13.10;99.90
20483;DHT22;10400;53.198;6.592;2022-10-31T01:49:45;13.00;99.90
20483;DHT22;10400;53.198;6.592;2022-10-31T01:52:34;13.00;99.90
20483;DHT22;10400;53.198;6.592;2022-10-31T01:55:09;13.00;99.90
20483;DHT22;10400;53.198;6.592;2022-10-31T01:57:37;12.90;99.90
20483;DHT22;10400;53.198;6.592;2022-10-31T02:00:08;13.00;99.90
20483;DHT22;10400;53.198;6.592;2022-10-31T02:02:34;12.90;99.90
20483;DHT22;10400;53.198;6.592;2022-10-31T02:05:04;12.90;99.90
20483;DHT22;10400;53.198;6.592;2022-10-31T02:10:13;12.90;99.90
20483;DHT22;10400;53.198;6.592;2022-10-31T02:12:39;12.90;99.90
20483;DHT22;10400;53.198;6.592;2022-10-31T02:15:08;12.90;99.90
20483;DHT22;10400;53.198;6.592;2022-10-31T02:17:34;12.80;99.90
20483;DHT22;10400;53.198;6.592;2022-10-31T02:28:30;12.80;99.90
20483;DHT22;10400;53.198;6.592;2022-10-31T02:31:33;12.80;99.90
20483;DHT22;10400;53.198;6.592;2022-10-31T02:34:13;12.70;99.90
20483;DHT22;10400;53.198;6.592;2022-10-31T02:36:59;12.70;99.90
20483;DHT22;10400;53.198;6.592;2022-10-31T02:39:53;12.70;99.90
20483;DHT22;10400;53.198;6.592;2022-10-31T02:45:12;12.70;99.90
20483;DHT22;10400;53.198;6.592;2022-10-31T02:47:38;12.70;99.90
20483;DHT22;10400;53.198;6.592;2022-10-31T02:50:35;12.60;99.90
20483;DHT22;10400;53.198;6.592;2022-10-31T02:53:03;12.60;99.90
20483;DHT22;10400;53.198;6.592;2022-10-31T02:58:07;12.60;99.90
20483;DHT22;10400;53.198;6.592;2022-10-31T03:03:50;12.60;99.90
20483;DHT22;10400;53.198;6.592;2022-10-31T03:06:40;12.60;99.90
20483;DHT22;10400;53.198;6.592;2022-10-31T03:12:11;12.60;99.90
20483;DHT22;10400;53.198;6.592;2022-10-31T03:14:49;12.50;99.90
20483;DHT22;10400;53.198;6.592;2022-10-31T03:17:27;12.40;99.90
20483;DHT22;10400;53.198;6.592;2022-10-31T03:20:00;12.50;99.90
20483;DHT22;10400;53.198;6.592;2022-10-31T03:22:29;12.40;99.90
20483;DHT22;10400;53.198;6.592;2022-10-31T03:24:57;12.40;99.90
20483;DHT22;10400;53.198;6.592;2022-10-31T03:27:26;12.40;99.90
20483;DHT22;10400;53.198;6.592;2022-10-31T03:29:56;12.40;99.90
20483;DHT22;10400;53.198;6.592;2022-10-31T03:32:32;12.40;99.90
20483;DHT22;10400;53.198;6.592;2022-10-31T03:35:01;12.30;99.90
20483;DHT22;10400;53.198;6.592;2022-10-31T03:37:30;12.30;99.90
20483;DHT22;10400;53.198;6.592;2022-10-31T03:39:58;12.30;99.90
20483;DHT22;10400;53.198;6.592;2022-10-31T03:42:26;12.30;99.90
20483;DHT22;10400;53.198;6.592;2022-10-31T03:44:57;12.20;99.90
20483;DHT22;10400;53.198;6.592;2022-10-31T03:47:24;12.30;99.90
20483;DHT22;10400;53.198;6.592;2022-10-31T03:49:50;12.30;99.90
20483;DHT22;10400;53.198;6.592;2022-10-31T03:52:45;12.20;99.90
20483;DHT22;10400;53.198;6.592;2022-10-31T03:57:57;12.20;99.90
20483;DHT22;10400;53.198;6.592;2022-10-31T04:00:25;12.20;99.90
20483;DHT22;10400;53.198;6.592;2022-10-31T04:02:53;12.20;99.90
20483;DHT22;10400;53.198;6.592;2022-10-31T04:05:21;12.20;99.90
20483;DHT22;10400;53.198;6.592;2022-10-31T04:07:50;12.20;99.90
20483;DHT22;10400;53.198;6.592;2022-10-31T04:10:18;12.20;99.90
20483;DHT22;10400;53.198;6.592;2022-10-31T04:12:49;12.20;99.90
20483;DHT22;10400;53.198;6.592;2022-10-31T04:15:17;12.20;99.90
20483;DHT22;10400;53.198;6.592;2022-10-31T04:17:45;12.20;99.90
20483;DHT22;10400;53.198;6.592;2022-10-31T04:20:15;12.10;99.90
20483;DHT22;10400;53.198;6.592;2022-10-31T04:22:41;12.10;99.90
20483;DHT22;10400;53.198;6.592;2022-10-31T04:25:07;12.10;99.90
20483;DHT22;10400;53.198;6.592;2022-10-31T04:27:33;12.10;99.90
20483;DHT22;10400;53.198;6.592;2022-10-31T04:29:58;12.10;99.90
20483;DHT22;10400;53.198;6.592;2022-10-31T04:32:25;12.00;99.90
20483;DHT22;10400;53.198;6.592;2022-10-31T04:34:50;12.00;99.90
20483;DHT22;10400;53.198;6.592;2022-10-31T04:37:16;12.00;99.90
20483;DHT22;10400;53.198;6.592;2022-10-31T04:39:42;12.00;99.90
20483;DHT22;10400;53.198;6.592;2022-10-31T04:42:07;12.00;99.90
20483;DHT22;10400;53.198;6.592;2022-10-31T04:44:33;12.00;99.90
20483;DHT22;10400;53.198;6.592;2022-10-31T04:46:58;12.00;99.90
20483;DHT22;10400;53.198;6.592;2022-10-31T04:49:24;11.90;99.90
20483;DHT22;10400;53.198;6.592;2022-10-31T04:51:50;11.90;99.90
20483;DHT22;10400;53.198;6.592;2022-10-31T04:54:15;11.90;99.90
20483;DHT22;10400;53.198;6.592;2022-10-31T04:56:41;11.90;99.90
20483;DHT22;10400;53.198;6.592;2022-10-31T04:59:06;11.80;99.90
20483;DHT22;10400;53.198;6.592;2022-10-31T05:01:32;11.80;99.90
20483;DHT22;10400;53.198;6.592;2022-10-31T05:03:57;11.80;99.90
20483;DHT22;10400;53.198;6.592;2022-10-31T05:06:23;11.70;99.90
20483;DHT22;10400;53.198;6.592;2022-10-31T05:08:49;11.60;99.90
20483;DHT22;10400;53.198;6.592;2022-10-31T05:11:14;11.60;99.90
20483;DHT22;10400;53.198;6.592;2022-10-31T05:13:40;11.60;99.90
20483;DHT22;10400;53.198;6.592;2022-10-31T05:16:06;11.50;99.90
20483;DHT22;10400;53.198;6.592;2022-10-31T05:18:31;11.50;99.90
20483;DHT22;10400;53.198;6.592;2022-10-31T05:20:57;11.50;99.90
20483;DHT22;10400;53.198;6.592;2022-10-31T05:23:23;11.50;99.90
20483;DHT22;10400;53.198;6.592;2022-10-31T05:25:48;11.40;99.90
20483;DHT22;10400;53.198;6.592;2022-10-31T05:28:14;11.40;99.90
20483;DHT22;10400;53.198;6.592;2022-10-31T05:30:39;11.40;99.90
20483;DHT22;10400;53.198;6.592;2022-10-31T05:33:05;11.40;99.90
20483;DHT22;10400;53.198;6.592;2022-10-31T05:35:32;11.40;99.90
20483;DHT22;10400;53.198;6.592;2022-10-31T05:37:58;11.40;99.90
20483;DHT22;10400;53.198;6.592;2022-10-31T05:40:25;11.40;99.90
20483;DHT22;10400;53.198;6.592;2022-10-31T05:42:52;11.40;99.90
20483;DHT22;10400;53.198;6.592;2022-10-31T05:45:19;11.30;99.90
20483;DHT22;10400;53.198;6.592;2022-10-31T05:47:56;11.40;99.90
20483;DHT22;10400;53.198;6.592;2022-10-31T05:50:22;11.30;99.90
20483;DHT22;10400;53.198;6.592;2022-10-31T05:52:55;11.30;99.90
20483;DHT22;10400;53.198;6.592;2022-10-31T05:55:21;11.30;99.90
20483;DHT22;10400;53.198;6.592;2022-10-31T05:57:46;11.30;99.90
20483;DHT22;10400;53.198;6.592;2022-10-31T06:00:12;11.40;99.90
20483;DHT22;10400;53.198;6.592;2022-10-31T06:02:38;11.40;99.90
20483;DHT22;10400;53.198;6.592;2022-10-31T06:05:03;11.30;99.90
20483;DHT22;10400;53.198;6.592;2022-10-31T06:07:34;11.30;99.90
20483;DHT22;10400;53.198;6.592;2022-10-31T06:10:00;11.30;99.90
20483;DHT22;10400;53.198;6.592;2022-10-31T06:12:26;11.30;99.90
20483;DHT22;10400;53.198;6.592;2022-10-31T06:14:51;11.30;99.90
20483;DHT22;10400;53.198;6.592;2022-10-31T06:17:17;11.30;99.90
20483;DHT22;10400;53.198;6.592;2022-10-31T06:19:42;11.30;99.90
20483;DHT22;10400;53.198;6.592;2022-10-31T06:22:08;11.30;99.90
20483;DHT22;10400;53.198;6.592;2022-10-31T06:24:36;11.30;99.90
20483;DHT22;10400;53.198;6.592;2022-10-31T06:27:02;11.30;99.90
20483;DHT22;10400;53.198;6.592;2022-10-31T06:29:27;11.30;99.90
20483;DHT22;10400;53.198;6.592;2022-10-31T06:31:53;11.30;99.90
20483;DHT22;10400;53.198;6.592;2022-10-31T06:34:19;11.30;99.90
20483;DHT22;10400;53.198;6.592;2022-10-31T06:36:46;11.30;99.90
20483;DHT22;10400;53.198;6.592;2022-10-31T06:39:12;11.30;99.90
20483;DHT22;10400;53.198;6.592;2022-10-31T06:41:37;11.30;99.90
20483;DHT22;10400;53.198;6.592;2022-10-31T06:44:05;11.20;99.90
20483;DHT22;10400;53.198;6.592;2022-10-31T06:46:31;11.20;99.90
20483;DHT22;10400;53.198;6.592;2022-10-31T06:48:57;11.20;99.90
20483;DHT22;10400;53.198;6.592;2022-10-31T06:51:23;11.20;99.90
20483;DHT22;10400;53.198;6.592;2022-10-31T06:53:48;11.20;99.90
20483;DHT22;10400;53.198;6.592;2022-10-31T06:56:14;11.20;99.90
20483;DHT22;10400;53.198;6.592;2022-10-31T06:58:40;11.20;99.90
20483;DHT22;10400;53.198;6.592;2022-10-31T07:01:05;11.20;99.90
20483;DHT22;10400;53.198;6.592;2022-10-31T07:03:31;11.30;99.90
20483;DHT22;10400;53.198;6.592;2022-10-31T07:05:57;11.20;99.90
20483;DHT22;10400;53.198;6.592;2022-10-31T07:08:24;11.20;99.90
20483;DHT22;10400;53.198;6.592;2022-10-31T07:10:55;11.30;99.90
20483;DHT22;10400;53.198;6.592;2022-10-31T07:13:21;11.30;99.90
20483;DHT22;10400;53.198;6.592;2022-10-31T07:15:55;11.30;99.90
20483;DHT22;10400;53.198;6.592;2022-10-31T07:18:24;11.40;99.90
20483;DHT22;10400;53.198;6.592;2022-10-31T07:20:51;11.40;99.90
20483;DHT22;10400;53.198;6.592;2022-10-31T07:23:16;11.30;99.90
20483;DHT22;10400;53.198;6.592;2022-10-31T07:25:42;11.20;99.90
20483;DHT22;10400;53.198;6.592;2022-10-31T07:28:08;11.20;99.90
20483;DHT22;10400;53.198;6.592;2022-10-31T07:30:34;11.20;99.90
20483;DHT22;10400;53.198;6.592;2022-10-31T07:32:59;11.20;99.90
20483;DHT22;10400;53.198;6.592;2022-10-31T07:35:27;11.20;99.90
20483;DHT22;10400;53.198;6.592;2022-10-31T07:37:53;11.20;99.90
20483;DHT22;10400;53.198;6.592;2022-10-31T07:40:20;11.20;99.90
20483;DHT22;10400;53.198;6.592;2022-10-31T07:42:48;11.20;99.90
20483;DHT22;10400;53.198;6.592;2022-10-31T07:45:19;11.30;99.90
20483;DHT22;10400;53.198;6.592;2022-10-31T07:47:50;11.30;99.90
20483;DHT22;10400;53.198;6.592;2022-10-31T07:50:21;11.40;99.90
20483;DHT22;10400;53.198;6.592;2022-10-31T07:52:46;11.60;99.90
20483;DHT22;10400;53.198;6.592;2022-10-31T07:55:13;11.60;99.90
20483;DHT22;10400;53.198;6.592;2022-10-31T07:57:39;11.60;99.90
20483;DHT22;10400;53.198;6.592;2022-10-31T08:00:09;11.80;99.90
20483;DHT22;10400;53.198;6.592;2022-10-31T08:02:35;11.80;99.90
20483;DHT22;10400;53.198;6.592;2022-10-31T08:05:01;11.80;99.90
20483;DHT22;10400;53.198;6.592;2022-10-31T08:07:35;11.90;99.90
20483;DHT22;10400;53.198;6.592;2022-10-31T08:10:00;11.90;99.90
20483;DHT22;10400;53.198;6.592;2022-10-31T08:12:26;11.80;99.90
20483;DHT22;10400;53.198;6.592;2022-10-31T08:14:52;11.80;99.90
20483;DHT22;10400;53.198;6.592;2022-10-31T08:17:17;11.80;99.90
20483;DHT22;10400;53.198;6.592;2022-10-31T08:19:43;11.90;99.90
20483;DHT22;10400;53.198;6.592;2022-10-31T08:22:08;12.00;99.90
20483;DHT22;10400;53.198;6.592;2022-10-31T08:24:34;12.00;99.90
20483;DHT22;10400;53.198;6.592;2022-10-31T08:26:59;12.20;99.90
20483;DHT22;10400;53.198;6.592;2022-10-31T08:29:25;12.30;99.90
20483;DHT22;10400;53.198;6.592;2022-10-31T08:31:51;12.30;99.90
20483;DHT22;10400;53.198;6.592;2022-10-31T08:34:16;12.30;99.90
20483;DHT22;10400;53.198;6.592;2022-10-31T08:36:42;12.30;99.90
20483;DHT22;10400;53.198;6.592;2022-10-31T08:39:10;12.20;99.90
20483;DHT22;10400;53.198;6.592;2022-10-31T08:41:35;12.40;99.90
20483;DHT22;10400;53.198;6.592;2022-10-31T08:44:01;12.40;99.90
20483;DHT22;10400;53.198;6.592;2022-10-31T08:46:27;12.40;99.90
20483;DHT22;10400;53.198;6.592;2022-10-31T08:48:52;12.50;99.90
20483;DHT22;10400;53.198;6.592;2022-10-31T08:51:18;12.60;99.90
20483;DHT22;10400;53.198;6.592;2022-10-31T08:53:44;12.60;99.90
20483;DHT22;10400;53.198;6.592;2022-10-31T08:56:09;12.60;99.90
20483;DHT22;10400;53.198;6.592;2022-10-31T08:58:35;12.70;99.90
20483;DHT22;10400;53.198;6.592;2022-10-31T09:01:01;12.70;99.90
20483;DHT22;10400;53.198;6.592;2022-10-31T09:03:28;12.80;99.90
20483;DHT22;10400;53.198;6.592;2022-10-31T09:05:56;12.90;99.90
20483;DHT22;10400;53.198;6.592;2022-10-31T09:08:22;13.00;99.90
20483;DHT22;10400;53.198;6.592;2022-10-31T09:10:48;13.10;99.90
20483;DHT22;10400;53.198;6.592;2022-10-31T09:13:16;13.30;99.90
20483;DHT22;10400;53.198;6.592;2022-10-31T09:15:43;13.40;99.90
20483;DHT22;10400;53.198;6.592;2022-10-31T09:18:10;13.40;99.90
20483;DHT22;10400;53.198;6.592;2022-10-31T09:20:37;13.50;99.90
20483;DHT22;10400;53.198;6.592;2022-10-31T09:23:10;13.60;99.90
20483;DHT22;10400;53.198;6.592;2022-10-31T09:25:35;13.60;99.90
20483;DHT22;10400;53.198;6.592;2022-10-31T09:28:02;13.60;99.90
20483;DHT22;10400;53.198;6.592;2022-10-31T09:30:29;13.60;99.90
20483;DHT22;10400;53.198;6.592;2022-10-31T09:32:56;13.60;99.90
20483;DHT22;10400;53.198;6.592;2022-10-31T09:35:23;13.60;99.90
20483;DHT22;10400;53.198;6.592;2022-10-31T09:37:57;13.60;99.90
20483;DHT22;10400;53.198;6.592;2022-10-31T09:40:38;13.70;99.90
20483;DHT22;10400;53.198;6.592;2022-10-31T09:45:50;13.70;99.90
20483;DHT22;10400;53.198;6.592;2022-10-31T09:49:01;13.70;99.90
20483;DHT22;10400;53.198;6.592;2022-10-31T09:51:31;13.60;99.90
20483;DHT22;10400;53.198;6.592;2022-10-31T09:55:14;13.70;99.90
20483;DHT22;10400;53.198;6.592;2022-10-31T09:57:13;13.90;99.90
20483;DHT22;10400;53.198;6.592;2022-10-31T09:59:41;14.00;99.90
20483;DHT22;10400;53.198;6.592;2022-10-31T10:02:13;14.00;99.90
20483;DHT22;10400;53.198;6.592;2022-10-31T10:09:56;14.40;99.90
20483;DHT22;10400;53.198;6.592;2022-10-31T10:13:12;14.40;99.90
20483;DHT22;10400;53.198;6.592;2022-10-31T10:16:06;14.40;99.90
20483;DHT22;10400;53.198;6.592;2022-10-31T10:23:28;14.90;99.90
20483;DHT22;10400;53.198;6.592;2022-10-31T10:26:03;15.00;99.90
20483;DHT22;10400;53.198;6.592;2022-10-31T10:28:33;15.00;99.90
20483;DHT22;10400;53.198;6.592;2022-10-31T10:31:15;15.10;99.90
20483;DHT22;10400;53.198;6.592;2022-10-31T10:36:41;15.10;99.90
20483;DHT22;10400;53.198;6.592;2022-10-31T10:39:22;15.00;99.90
20483;DHT22;10400;53.198;6.592;2022-10-31T10:41:49;15.10;99.90
20483;DHT22;10400;53.198;6.592;2022-10-31T10:44:39;15.00;99.90
20483;DHT22;10400;53.198;6.592;2022-10-31T10:47:25;15.00;99.90
20483;DHT22;10400;53.198;6.592;2022-10-31T10:50:19;15.00;99.90
20483;DHT22;10400;53.198;6.592;2022-10-31T10:55:45;15.00;99.90
20483;DHT22;10400;53.198;6.592;2022-10-31T10:58:14;14.90;99.90
20483;DHT22;10400;53.198;6.592;2022-10-31T11:00:42;14.90;99.90
20483;DHT22;10400;53.198;6.592;2022-10-31T11:03:08;14.90;99.90
20483;DHT22;10400;53.198;6.592;2022-10-31T11:05:55;15.00;99.90
20483;DHT22;10400;53.198;6.592;2022-10-31T11:08:32;15.10;99.90
20483;DHT22;10400;53.198;6.592;2022-10-31T11:13:48;15.20;99.90
20483;DHT22;10400;53.198;6.592;2022-10-31T11:16:27;15.30;99.90
20483;DHT22;10400;53.198;6.592;2022-10-31T11:18:53;15.40;99.90
20483;DHT22;10400;53.198;6.592;2022-10-31T11:21:29;15.40;99.90
20483;DHT22;10400;53.198;6.592;2022-10-31T11:24:23;15.40;99.90
20483;DHT22;10400;53.198;6.592;2022-10-31T11:26:51;15.40;99.90
20483;DHT22;10400;53.198;6.592;2022-10-31T11:29:24;15.40;99.90
20483;DHT22;10400;53.198;6.592;2022-10-31T11:31:55;15.40;99.90
20483;DHT22;10400;53.198;6.592;2022-10-31T11:34:34;15.50;99.90
20483;DHT22;10400;53.198;6.592;2022-10-31T11:37:15;15.60;99.90
20483;DHT22;10400;53.198;6.592;2022-10-31T11:39:45;15.60;99.90
20483;DHT22;10400;53.198;6.592;2022-10-31T11:42:23;15.60;99.90
20483;DHT22;10400;53.198;6.592;2022-10-31T11:44:51;15.60;99.90
20483;DHT22;10400;53.198;6.592;2022-10-31T11:47:21;15.60;99.90
20483;DHT22;10400;53.198;6.592;2022-10-31T11:49:50;15.50;99.90
20483;DHT22;10400;53.198;6.592;2022-10-31T11:52:27;15.60;99.90
20483;DHT22;10400;53.198;6.592;2022-10-31T11:54:55;15.60;99.90
20483;DHT22;10400;53.198;6.592;2022-10-31T11:59:56;15.80;99.90
20483;DHT22;10400;53.198;6.592;2022-10-31T12:02:22;15.80;99.90
20483;DHT22;10400;53.198;6.592;2022-10-31T12:05:17;15.80;99.90
20483;DHT22;10400;53.198;6.592;2022-10-31T12:07:43;15.80;99.90
20483;DHT22;10400;53.198;6.592;2022-10-31T12:10:10;15.90;99.90
20483;DHT22;10400;53.198;6.592;2022-10-31T12:15:33;16.00;99.90
20483;DHT22;10400;53.198;6.592;2022-10-31T12:37:43;16.40;99.90
20483;DHT22;10400;53.198;6.592;2022-10-31T12:40:46;16.40;99.90
20483;DHT22;10400;53.198;6.592;2022-10-31T12:43:34;16.40;99.90
20483;DHT22;10400;53.198;6.592;2022-10-31T12:46:02;16.40;99.90
20483;DHT22;10400;53.198;6.592;2022-10-31T12:53:51;16.30;99.90
20483;DHT22;10400;53.198;6.592;2022-10-31T12:58:56;16.30;99.90
20483;DHT22;10400;53.198;6.592;2022-10-31T13:04:14;16.40;99.90
20483;DHT22;10400;53.198;6.592;2022-10-31T13:07:04;16.40;99.90
20483;DHT22;10400;53.198;6.592;2022-10-31T13:09:42;16.40;99.90
20483;DHT22;10400;53.198;6.592;2022-10-31T13:12:15;16.40;99.90
20483;DHT22;10400;53.198;6.592;2022-10-31T13:14:59;16.50;99.90
20483;DHT22;10400;53.198;6.592;2022-10-31T13:17:48;16.40;99.90
20483;DHT22;10400;53.198;6.592;2022-10-31T13:22:50;16.30;99.90
20483;DHT22;10400;53.198;6.592;2022-10-31T13:25:23;16.20;99.90
20483;DHT22;10400;53.198;6.592;2022-10-31T13:27:59;16.20;99.90
20483;DHT22;10400;53.198;6.592;2022-10-31T13:30:37;16.10;99.90
20483;DHT22;10400;53.198;6.592;2022-10-31T13:33:17;16.20;99.90
20483;DHT22;10400;53.198;6.592;2022-10-31T13:35:55;16.20;99.90
20483;DHT22;10400;53.198;6.592;2022-10-31T13:38:46;16.30;99.90
20483;DHT22;10400;53.198;6.592;2022-10-31T13:46:39;16.20;99.90
20483;DHT22;10400;53.198;6.592;2022-10-31T13:54:49;16.30;99.90
20483;DHT22;10400;53.198;6.592;2022-10-31T13:59:58;16.30;99.90
20483;DHT22;10400;53.198;6.592;2022-10-31T14:02:35;16.40;99.90
20483;DHT22;10400;53.198;6.592;2022-10-31T14:05:16;16.40;99.90
20483;DHT22;10400;53.198;6.592;2022-10-31T14:07:45;16.40;99.90
20483;DHT22;10400;53.198;6.592;2022-10-31T14:13:20;16.40;99.90
20483;DHT22;10400;53.198;6.592;2022-10-31T14:16:26;16.40;99.90
20483;DHT22;10400;53.198;6.592;2022-10-31T14:21:29;16.30;99.90
20483;DHT22;10400;53.198;6.592;2022-10-31T14:23:56;16.20;99.90
20483;DHT22;10400;53.198;6.592;2022-10-31T14:31:51;16.20;99.90
20483;DHT22;10400;53.198;6.592;2022-10-31T14:34:33;16.20;99.90
20483;DHT22;10400;53.198;6.592;2022-10-31T14:48:47;16.20;99.90
20483;DHT22;10400;53.198;6.592;2022-10-31T14:51:21;16.10;99.90
20483;DHT22;10400;53.198;6.592;2022-10-31T14:53:50;16.10;99.90
20483;DHT22;10400;53.198;6.592;2022-10-31T14:56:37;16.20;99.90
20483;DHT22;10400;53.198;6.592;2022-10-31T14:59:13;16.10;99.90
20483;DHT22;10400;53.198;6.592;2022-10-31T15:01:54;16.10;99.90
20483;DHT22;10400;53.198;6.592;2022-10-31T15:04:23;16.10;99.90
20483;DHT22;10400;53.198;6.592;2022-10-31T15:07:32;16.10;99.90
20483;DHT22;10400;53.198;6.592;2022-10-31T15:09:40;16.00;99.90
20483;DHT22;10400;53.198;6.592;2022-10-31T15:12:24;15.90;99.90
20483;DHT22;10400;53.198;6.592;2022-10-31T15:14:50;15.90;99.90
20483;DHT22;10400;53.198;6.592;2022-10-31T15:17:16;15.80;99.90
20483;DHT22;10400;53.198;6.592;2022-10-31T15:19:42;15.80;99.90
20483;DHT22;10400;53.198;6.592;2022-10-31T15:22:19;15.70;99.90
20483;DHT22;10400;53.198;6.592;2022-10-31T15:24:46;15.70;99.90
20483;DHT22;10400;53.198;6.592;2022-10-31T15:27:15;15.60;99.90
20483;DHT22;10400;53.198;6.592;2022-10-31T15:29:52;15.60;99.90
20483;DHT22;10400;53.198;6.592;2022-10-31T15:32:22;15.60;99.90
20483;DHT22;10400;53.198;6.592;2022-10-31T15:34:49;15.50;99.90
20483;DHT22;10400;53.198;6.592;2022-10-31T15:37:18;15.50;99.90
20483;DHT22;10400;53.198;6.592;2022-10-31T15:39:45;15.40;99.90
20483;DHT22;10400;53.198;6.592;2022-10-31T15:42:35;15.40;99.90
20483;DHT22;10400;53.198;6.592;2022-10-31T15:45:05;15.40;99.90
20483;DHT22;10400;53.198;6.592;2022-10-31T15:50:40;15.40;99.90
20483;DHT22;10400;53.198;6.592;2022-10-31T15:53:17;15.30;99.90
20483;DHT22;10400;53.198;6.592;2022-10-31T15:55:59;15.30;99.90
20483;DHT22;10400;53.198;6.592;2022-10-31T15:58:26;15.30;99.90
20483;DHT22;10400;53.198;6.592;2022-10-31T16:01:18;15.30;99.90
20483;DHT22;10400;53.198;6.592;2022-10-31T16:03:44;15.20;99.90
20483;DHT22;10400;53.198;6.592;2022-10-31T16:06:20;15.20;99.90
20483;DHT22;10400;53.198;6.592;2022-10-31T16:08:48;15.20;99.90
20483;DHT22;10400;53.198;6.592;2022-10-31T16:11:28;15.20;99.90
20483;DHT22;10400;53.198;6.592;2022-10-31T16:14:32;15.20;99.90
20483;DHT22;10400;53.198;6.592;2022-10-31T16:16:53;15.20;99.90
20483;DHT22;10400;53.198;6.592;2022-10-31T16:19:25;15.20;99.90
20483;DHT22;10400;53.198;6.592;2022-10-31T16:22:08;15.10;99.90
20483;DHT22;10400;53.198;6.592;2022-10-31T16:27:25;15.10;99.90
20483;DHT22;10400;53.198;6.592;2022-10-31T16:29:55;15.00;99.90
20483;DHT22;10400;53.198;6.592;2022-10-31T16:35:25;15.00;99.90
20483;DHT22;10400;53.198;6.592;2022-10-31T16:37:52;14.90;99.90
20483;DHT22;10400;53.198;6.592;2022-10-31T16:40:18;14.90;99.90
20483;DHT22;10400;53.198;6.592;2022-10-31T16:42:45;14.80;99.90
20483;DHT22;10400;53.198;6.592;2022-10-31T16:45:20;14.80;99.90
20483;DHT22;10400;53.198;6.592;2022-10-31T16:47:46;14.80;99.90
20483;DHT22;10400;53.198;6.592;2022-10-31T16:50:13;14.80;99.90
20483;DHT22;10400;53.198;6.592;2022-10-31T16:52:39;14.70;99.90
20483;DHT22;10400;53.198;6.592;2022-10-31T16:55:10;14.70;99.90
20483;DHT22;10400;53.198;6.592;2022-10-31T16:57:36;14.70;99.90
20483;DHT22;10400;53.198;6.592;2022-10-31T17:00:03;14.70;99.90
20483;DHT22;10400;53.198;6.592;2022-10-31T17:02:29;14.70;99.90
20483;DHT22;10400;53.198;6.592;2022-10-31T17:04:54;14.70;99.90
20483;DHT22;10400;53.198;6.592;2022-10-31T17:07:20;14.60;99.90
20483;DHT22;10400;53.198;6.592;2022-10-31T17:09:46;14.60;99.90
20483;DHT22;10400;53.198;6.592;2022-10-31T17:12:17;14.60;99.90
20483;DHT22;10400;53.198;6.592;2022-10-31T17:14:48;14.60;99.90
20483;DHT22;10400;53.198;6.592;2022-10-31T17:17:15;14.60;99.90
20483;DHT22;10400;53.198;6.592;2022-10-31T17:19:40;14.60;99.90
20483;DHT22;10400;53.198;6.592;2022-10-31T17:22:07;14.50;99.90
20483;DHT22;10400;53.198;6.592;2022-10-31T17:24:33;14.50;99.90
20483;DHT22;10400;53.198;6.592;2022-10-31T17:26:59;14.50;99.90
20483;DHT22;10400;53.198;6.592;2022-10-31T17:29:25;14.50;99.90
20483;DHT22;10400;53.198;6.592;2022-10-31T17:31:50;14.50;99.90
20483;DHT22;10400;53.198;6.592;2022-10-31T17:34:16;14.50;99.90
20483;DHT22;10400;53.198;6.592;2022-10-31T17:36:51;14.50;99.90
20483;DHT22;10400;53.198;6.592;2022-10-31T17:39:18;14.50;99.90
20483;DHT22;10400;53.198;6.592;2022-10-31T17:41:44;14.50;99.90
20483;DHT22;10400;53.198;6.592;2022-10-31T17:44:11;14.50;99.90
20483;DHT22;10400;53.198;6.592;2022-10-31T17:46:37;14.50;99.90
20483;DHT22;10400;53.198;6.592;2022-10-31T17:49:04;14.50;99.90
20483;DHT22;10400;53.198;6.592;2022-10-31T17:51:32;14.50;99.90
20483;DHT22;10400;53.198;6.592;2022-10-31T17:53:57;14.50;99.90
20483;DHT22;10400;53.198;6.592;2022-10-31T17:56:23;14.50;99.90
20483;DHT22;10400;53.198;6.592;2022-10-31T17:58:49;14.50;99.90
20483;DHT22;10400;53.198;6.592;2022-10-31T18:01:17;14.40;99.90
20483;DHT22;10400;53.198;6.592;2022-10-31T18:03:43;14.50;99.90